sensor_id;sensor_type;location;lat;lon;timestamp;P1;durP1;ratioP1;P2;durP2;ratioP2
16954;SDS011;8594;52.052;8.354;2024-03-22T00:00:36;36.50;;;20.53;;
16954;SDS011;8594;52.052;8.354;2024-03-22T00:03:03;41.30;;;22.80;;
16954;SDS011;8594;52.052;8.354;2024-03-22T00:05:29;38.47;;;21.13;;
16954;SDS011;8594;52.052;8.354;2024-03-22T00:07:56;47.83;;;22.07;;
16954;SDS011;8594;52.052;8.354;2024-03-22T00:10:22;36.70;;;21.10;;
16954;SDS011;8594;52.052;8.354;2024-03-22T00:12:48;41.80;;;22.17;;
16954;SDS011;8594;52.052;8.354;2024-03-22T00:15:16;41.17;;;22.67;;
16954;SDS011;8594;52.052;8.354;2024-03-22T00:17:42;40.83;;;22.70;;
16954;SDS011;8594;52.052;8.354;2024-03-22T00:20:10;45.73;;;22.53;;
16954;SDS011;8594;52.052;8.354;2024-03-22T00:22:37;45.90;;;22.73;;
16954;SDS011;8594;52.052;8.354;2024-03-22T00:25:03;44.33;;;21.73;;
16954;SDS011;8594;52.052;8.354;2024-03-22T00:27:31;45.63;;;22.53;;
16954;SDS011;8594;52.052;8.354;2024-03-22T00:29:57;45.43;;;21.63;;
16954;SDS011;8594;52.052;8.354;2024-03-22T00:32:25;40.60;;;23.10;;
16954;SDS011;8594;52.052;8.354;2024-03-22T00:34:50;48.57;;;24.07;;
16954;SDS011;8594;52.052;8.354;2024-03-22T00:37:17;43.27;;;23.00;;
16954;SDS011;8594;52.052;8.354;2024-03-22T00:39:43;46.87;;;23.73;;
16954;SDS011;8594;52.052;8.354;2024-03-22T00:42:10;46.17;;;24.13;;
16954;SDS011;8594;52.052;8.354;2024-03-22T00:44:36;44.33;;;23.47;;
16954;SDS011;8594;52.052;8.354;2024-03-22T00:47:03;43.93;;;23.57;;
16954;SDS011;8594;52.052;8.354;2024-03-22T00:49:30;46.67;;;24.70;;
16954;SDS011;8594;52.052;8.354;2024-03-22T00:51:57;47.57;;;25.53;;
16954;SDS011;8594;52.052;8.354;2024-03-22T00:54:23;54.50;;;27.07;;
16954;SDS011;8594;52.052;8.354;2024-03-22T00:56:49;55.07;;;26.90;;
16954;SDS011;8594;52.052;8.354;2024-03-22T00:59:15;44.53;;;25.03;;
16954;SDS011;8594;52.052;8.354;2024-03-22T01:01:43;51.53;;;25.63;;
16954;SDS011;8594;52.052;8.354;2024-03-22T01:04:09;52.70;;;26.70;;
16954;SDS011;8594;52.052;8.354;2024-03-22T01:06:37;50.27;;;26.33;;
16954;SDS011;8594;52.052;8.354;2024-03-22T01:09:04;56.90;;;26.70;;
16954;SDS011;8594;52.052;8.354;2024-03-22T01:11:32;58.20;;;26.40;;
16954;SDS011;8594;52.052;8.354;2024-03-22T01:13:58;53.93;;;27.43;;
16954;SDS011;8594;52.052;8.354;2024-03-22T01:16:25;57.33;;;27.90;;
16954;SDS011;8594;52.052;8.354;2024-03-22T01:18:50;55.80;;;27.37;;
16954;SDS011;8594;52.052;8.354;2024-03-22T01:21:17;57.93;;;27.70;;
16954;SDS011;8594;52.052;8.354;2024-03-22T01:23:44;54.00;;;27.10;;
16954;SDS011;8594;52.052;8.354;2024-03-22T01:26:11;52.50;;;27.67;;
16954;SDS011;8594;52.052;8.354;2024-03-22T01:28:37;55.30;;;27.37;;
16954;SDS011;8594;52.052;8.354;2024-03-22T01:31:03;53.27;;;27.30;;
16954;SDS011;8594;52.052;8.354;2024-03-22T01:33:29;57.30;;;26.87;;
16954;SDS011;8594;52.052;8.354;2024-03-22T01:35:56;59.70;;;28.87;;
16954;SDS011;8594;52.052;8.354;2024-03-22T01:38:22;55.43;;;27.73;;
16954;SDS011;8594;52.052;8.354;2024-03-22T01:40:50;59.30;;;29.00;;
16954;SDS011;8594;52.052;8.354;2024-03-22T01:43:15;54.70;;;28.20;;
16954;SDS011;8594;52.052;8.354;2024-03-22T01:45:42;51.97;;;26.70;;
16954;SDS011;8594;52.052;8.354;2024-03-22T01:48:08;58.90;;;28.47;;
16954;SDS011;8594;52.052;8.354;2024-03-22T01:50:35;57.33;;;27.90;;
16954;SDS011;8594;52.052;8.354;2024-03-22T01:53:01;51.20;;;26.20;;
16954;SDS011;8594;52.052;8.354;2024-03-22T01:55:27;56.40;;;27.67;;
16954;SDS011;8594;52.052;8.354;2024-03-22T01:57:55;49.77;;;26.30;;
16954;SDS011;8594;52.052;8.354;2024-03-22T02:00:22;59.13;;;27.20;;
16954;SDS011;8594;52.052;8.354;2024-03-22T02:02:48;53.43;;;27.30;;
16954;SDS011;8594;52.052;8.354;2024-03-22T02:05:15;55.40;;;28.47;;
16954;SDS011;8594;52.052;8.354;2024-03-22T02:07:45;55.77;;;27.53;;
16954;SDS011;8594;52.052;8.354;2024-03-22T02:10:12;58.37;;;27.83;;
16954;SDS011;8594;52.052;8.354;2024-03-22T02:12:38;57.50;;;28.23;;
16954;SDS011;8594;52.052;8.354;2024-03-22T02:15:08;60.90;;;28.57;;
16954;SDS011;8594;52.052;8.354;2024-03-22T02:17:34;58.90;;;27.03;;
16954;SDS011;8594;52.052;8.354;2024-03-22T02:20:02;53.10;;;26.17;;
16954;SDS011;8594;52.052;8.354;2024-03-22T02:22:29;51.67;;;26.63;;
16954;SDS011;8594;52.052;8.354;2024-03-22T02:24:57;57.63;;;27.10;;
16954;SDS011;8594;52.052;8.354;2024-03-22T02:27:24;61.67;;;27.63;;
16954;SDS011;8594;52.052;8.354;2024-03-22T02:29:51;58.43;;;28.10;;
16954;SDS011;8594;52.052;8.354;2024-03-22T02:32:17;59.93;;;27.40;;
16954;SDS011;8594;52.052;8.354;2024-03-22T02:34:44;55.97;;;26.03;;
16954;SDS011;8594;52.052;8.354;2024-03-22T02:37:10;57.20;;;26.33;;
16954;SDS011;8594;52.052;8.354;2024-03-22T02:39:36;56.40;;;26.73;;
16954;SDS011;8594;52.052;8.354;2024-03-22T02:42:04;59.23;;;27.23;;
16954;SDS011;8594;52.052;8.354;2024-03-22T02:44:31;54.97;;;27.17;;
16954;SDS011;8594;52.052;8.354;2024-03-22T02:46:57;57.27;;;26.10;;
16954;SDS011;8594;52.052;8.354;2024-03-22T02:49:25;54.93;;;26.70;;
16954;SDS011;8594;52.052;8.354;2024-03-22T02:51:51;57.83;;;27.20;;
16954;SDS011;8594;52.052;8.354;2024-03-22T02:54:18;53.93;;;25.50;;
16954;SDS011;8594;52.052;8.354;2024-03-22T02:56:43;55.87;;;26.43;;
16954;SDS011;8594;52.052;8.354;2024-03-22T02:59:11;60.17;;;26.40;;
16954;SDS011;8594;52.052;8.354;2024-03-22T03:01:37;56.43;;;26.73;;
16954;SDS011;8594;52.052;8.354;2024-03-22T03:04:04;58.47;;;26.70;;
16954;SDS011;8594;52.052;8.354;2024-03-22T03:06:30;52.07;;;25.77;;
16954;SDS011;8594;52.052;8.354;2024-03-22T03:08:56;61.23;;;26.00;;
16954;SDS011;8594;52.052;8.354;2024-03-22T03:11:22;58.10;;;26.63;;
16954;SDS011;8594;52.052;8.354;2024-03-22T03:13:49;57.70;;;25.73;;
16954;SDS011;8594;52.052;8.354;2024-03-22T03:16:16;55.03;;;25.60;;
16954;SDS011;8594;52.052;8.354;2024-03-22T03:18:43;55.10;;;25.80;;
16954;SDS011;8594;52.052;8.354;2024-03-22T03:21:08;59.07;;;26.43;;
16954;SDS011;8594;52.052;8.354;2024-03-22T03:23:35;61.03;;;26.73;;
16954;SDS011;8594;52.052;8.354;2024-03-22T03:26:01;61.00;;;26.10;;
16954;SDS011;8594;52.052;8.354;2024-03-22T03:28:27;58.87;;;25.03;;
16954;SDS011;8594;52.052;8.354;2024-03-22T03:30:53;54.40;;;24.57;;
16954;SDS011;8594;52.052;8.354;2024-03-22T03:33:21;55.30;;;25.30;;
16954;SDS011;8594;52.052;8.354;2024-03-22T03:35:47;59.57;;;26.73;;
16954;SDS011;8594;52.052;8.354;2024-03-22T03:38:14;56.87;;;25.93;;
16954;SDS011;8594;52.052;8.354;2024-03-22T03:40:40;57.90;;;25.60;;
16954;SDS011;8594;52.052;8.354;2024-03-22T03:43:06;57.40;;;25.57;;
16954;SDS011;8594;52.052;8.354;2024-03-22T03:45:32;61.33;;;26.80;;
16954;SDS011;8594;52.052;8.354;2024-03-22T03:48:02;58.63;;;26.43;;
16954;SDS011;8594;52.052;8.354;2024-03-22T03:50:30;57.93;;;26.03;;
16954;SDS011;8594;52.052;8.354;2024-03-22T03:52:57;57.93;;;25.97;;
16954;SDS011;8594;52.052;8.354;2024-03-22T03:55:23;57.90;;;25.67;;
16954;SDS011;8594;52.052;8.354;2024-03-22T03:57:50;57.40;;;25.10;;
16954;SDS011;8594;52.052;8.354;2024-03-22T04:00:16;58.97;;;25.03;;
16954;SDS011;8594;52.052;8.354;2024-03-22T04:02:44;60.63;;;26.33;;
16954;SDS011;8594;52.052;8.354;2024-03-22T04:05:10;57.50;;;25.23;;
16954;SDS011;8594;52.052;8.354;2024-03-22T04:07:38;58.43;;;25.73;;
16954;SDS011;8594;52.052;8.354;2024-03-22T04:10:04;59.47;;;25.90;;
16954;SDS011;8594;52.052;8.354;2024-03-22T04:12:32;51.97;;;24.47;;
16954;SDS011;8594;52.052;8.354;2024-03-22T04:14:57;60.73;;;26.00;;
16954;SDS011;8594;52.052;8.354;2024-03-22T04:17:24;59.40;;;26.40;;
16954;SDS011;8594;52.052;8.354;2024-03-22T04:19:50;58.10;;;26.20;;
16954;SDS011;8594;52.052;8.354;2024-03-22T04:22:17;58.33;;;25.07;;
16954;SDS011;8594;52.052;8.354;2024-03-22T04:24:44;52.47;;;25.00;;
16954;SDS011;8594;52.052;8.354;2024-03-22T04:27:10;63.23;;;26.43;;
16954;SDS011;8594;52.052;8.354;2024-03-22T04:29:36;55.23;;;24.57;;
16954;SDS011;8594;52.052;8.354;2024-03-22T04:32:03;63.17;;;26.47;;
16954;SDS011;8594;52.052;8.354;2024-03-22T04:34:29;56.77;;;25.10;;
16954;SDS011;8594;52.052;8.354;2024-03-22T04:36:56;62.93;;;27.70;;
16954;SDS011;8594;52.052;8.354;2024-03-22T04:39:22;58.37;;;25.83;;
16954;SDS011;8594;52.052;8.354;2024-03-22T04:41:51;57.90;;;24.33;;
16954;SDS011;8594;52.052;8.354;2024-03-22T04:44:17;56.60;;;24.87;;
16954;SDS011;8594;52.052;8.354;2024-03-22T04:46:44;56.17;;;25.40;;
16954;SDS011;8594;52.052;8.354;2024-03-22T04:49:10;57.03;;;25.27;;
16954;SDS011;8594;52.052;8.354;2024-03-22T04:51:36;66.67;;;27.03;;
16954;SDS011;8594;52.052;8.354;2024-03-22T04:54:03;63.63;;;26.93;;
16954;SDS011;8594;52.052;8.354;2024-03-22T04:56:29;57.50;;;25.47;;
16954;SDS011;8594;52.052;8.354;2024-03-22T04:58:57;60.67;;;25.37;;
16954;SDS011;8594;52.052;8.354;2024-03-22T05:01:23;54.60;;;25.00;;
16954;SDS011;8594;52.052;8.354;2024-03-22T05:03:50;60.80;;;27.17;;
16954;SDS011;8594;52.052;8.354;2024-03-22T05:06:16;58.47;;;26.03;;
16954;SDS011;8594;52.052;8.354;2024-03-22T05:08:43;61.60;;;24.73;;
16954;SDS011;8594;52.052;8.354;2024-03-22T05:11:09;62.87;;;26.10;;
16954;SDS011;8594;52.052;8.354;2024-03-22T05:13:36;58.40;;;25.07;;
16954;SDS011;8594;52.052;8.354;2024-03-22T05:16:03;56.90;;;24.83;;
16954;SDS011;8594;52.052;8.354;2024-03-22T05:18:30;58.93;;;26.10;;
16954;SDS011;8594;52.052;8.354;2024-03-22T05:20:56;59.27;;;26.33;;
16954;SDS011;8594;52.052;8.354;2024-03-22T05:23:23;60.87;;;26.53;;
16954;SDS011;8594;52.052;8.354;2024-03-22T05:25:49;55.63;;;25.07;;
16954;SDS011;8594;52.052;8.354;2024-03-22T05:28:15;58.57;;;25.50;;
16954;SDS011;8594;52.052;8.354;2024-03-22T05:30:41;57.33;;;26.37;;
16954;SDS011;8594;52.052;8.354;2024-03-22T05:33:09;59.57;;;24.93;;
16954;SDS011;8594;52.052;8.354;2024-03-22T05:35:35;58.17;;;25.67;;
16954;SDS011;8594;52.052;8.354;2024-03-22T05:38:02;63.47;;;26.60;;
16954;SDS011;8594;52.052;8.354;2024-03-22T05:40:28;63.87;;;26.13;;
16954;SDS011;8594;52.052;8.354;2024-03-22T05:42:55;63.93;;;26.77;;
16954;SDS011;8594;52.052;8.354;2024-03-22T05:45:21;58.33;;;25.10;;
16954;SDS011;8594;52.052;8.354;2024-03-22T05:47:48;56.43;;;23.43;;
16954;SDS011;8594;52.052;8.354;2024-03-22T05:50:15;56.10;;;24.27;;
16954;SDS011;8594;52.052;8.354;2024-03-22T05:52:42;60.60;;;24.93;;
16954;SDS011;8594;52.052;8.354;2024-03-22T05:55:07;59.50;;;25.57;;
16954;SDS011;8594;52.052;8.354;2024-03-22T05:57:34;55.23;;;23.30;;
16954;SDS011;8594;52.052;8.354;2024-03-22T06:00:00;51.23;;;23.33;;
16954;SDS011;8594;52.052;8.354;2024-03-22T06:02:27;55.73;;;24.23;;
16954;SDS011;8594;52.052;8.354;2024-03-22T06:04:52;51.53;;;22.43;;
16954;SDS011;8594;52.052;8.354;2024-03-22T06:07:20;48.77;;;23.07;;
16954;SDS011;8594;52.052;8.354;2024-03-22T06:09:46;52.60;;;22.63;;
16954;SDS011;8594;52.052;8.354;2024-03-22T06:12:13;55.97;;;22.90;;
16954;SDS011;8594;52.052;8.354;2024-03-22T06:14:40;53.03;;;22.67;;
16954;SDS011;8594;52.052;8.354;2024-03-22T06:17:08;53.47;;;22.77;;
16954;SDS011;8594;52.052;8.354;2024-03-22T06:19:34;52.27;;;22.40;;
16954;SDS011;8594;52.052;8.354;2024-03-22T06:22:01;50.63;;;22.30;;
16954;SDS011;8594;52.052;8.354;2024-03-22T06:24:29;48.60;;;21.27;;
16954;SDS011;8594;52.052;8.354;2024-03-22T06:26:55;51.87;;;21.43;;
16954;SDS011;8594;52.052;8.354;2024-03-22T06:29:21;44.80;;;20.83;;
16954;SDS011;8594;52.052;8.354;2024-03-22T06:31:48;50.73;;;22.27;;
16954;SDS011;8594;52.052;8.354;2024-03-22T06:34:15;44.13;;;21.50;;
16954;SDS011;8594;52.052;8.354;2024-03-22T06:36:42;50.50;;;21.40;;
16954;SDS011;8594;52.052;8.354;2024-03-22T06:39:08;45.03;;;20.57;;
16954;SDS011;8594;52.052;8.354;2024-03-22T06:41:36;45.83;;;21.10;;
16954;SDS011;8594;52.052;8.354;2024-03-22T06:44:02;50.07;;;22.00;;
16954;SDS011;8594;52.052;8.354;2024-03-22T06:46:29;48.47;;;21.67;;
16954;SDS011;8594;52.052;8.354;2024-03-22T06:48:55;43.53;;;20.63;;
16954;SDS011;8594;52.052;8.354;2024-03-22T06:51:24;48.00;;;21.70;;
16954;SDS011;8594;52.052;8.354;2024-03-22T06:53:49;50.63;;;20.87;;
16954;SDS011;8594;52.052;8.354;2024-03-22T06:56:16;44.40;;;20.80;;
16954;SDS011;8594;52.052;8.354;2024-03-22T06:58:44;44.50;;;20.53;;
16954;SDS011;8594;52.052;8.354;2024-03-22T07:01:11;45.07;;;20.57;;
16954;SDS011;8594;52.052;8.354;2024-03-22T07:03:37;45.30;;;19.87;;
16954;SDS011;8594;52.052;8.354;2024-03-22T07:06:03;45.33;;;20.80;;
16954;SDS011;8594;52.052;8.354;2024-03-22T07:08:32;43.27;;;19.60;;
16954;SDS011;8594;52.052;8.354;2024-03-22T07:10:59;42.60;;;20.50;;
16954;SDS011;8594;52.052;8.354;2024-03-22T07:13:25;41.73;;;19.70;;
16954;SDS011;8594;52.052;8.354;2024-03-22T07:15:53;41.90;;;19.40;;
16954;SDS011;8594;52.052;8.354;2024-03-22T07:18:19;41.07;;;19.60;;
16954;SDS011;8594;52.052;8.354;2024-03-22T07:20:45;38.70;;;19.03;;
16954;SDS011;8594;52.052;8.354;2024-03-22T07:23:12;46.83;;;19.67;;
16954;SDS011;8594;52.052;8.354;2024-03-22T07:25:39;46.13;;;20.33;;
16954;SDS011;8594;52.052;8.354;2024-03-22T07:28:07;46.37;;;18.93;;
16954;SDS011;8594;52.052;8.354;2024-03-22T07:30:34;42.37;;;19.30;;
16954;SDS011;8594;52.052;8.354;2024-03-22T07:33:02;40.37;;;19.23;;
16954;SDS011;8594;52.052;8.354;2024-03-22T07:35:29;41.30;;;19.80;;
16954;SDS011;8594;52.052;8.354;2024-03-22T07:37:55;36.50;;;18.77;;
16954;SDS011;8594;52.052;8.354;2024-03-22T07:40:26;40.23;;;18.77;;
16954;SDS011;8594;52.052;8.354;2024-03-22T07:42:52;38.60;;;18.03;;
16954;SDS011;8594;52.052;8.354;2024-03-22T07:45:19;40.00;;;17.90;;
16954;SDS011;8594;52.052;8.354;2024-03-22T07:47:45;40.37;;;18.47;;
16954;SDS011;8594;52.052;8.354;2024-03-22T07:50:14;38.30;;;18.40;;
16954;SDS011;8594;52.052;8.354;2024-03-22T07:52:40;39.60;;;18.70;;
16954;SDS011;8594;52.052;8.354;2024-03-22T07:55:07;43.50;;;18.27;;
16954;SDS011;8594;52.052;8.354;2024-03-22T07:57:33;38.13;;;19.07;;
16954;SDS011;8594;52.052;8.354;2024-03-22T07:59:59;40.67;;;18.03;;
16954;SDS011;8594;52.052;8.354;2024-03-22T08:02:26;39.93;;;19.20;;
16954;SDS011;8594;52.052;8.354;2024-03-22T08:04:53;38.90;;;18.60;;
16954;SDS011;8594;52.052;8.354;2024-03-22T08:07:20;39.47;;;18.80;;
16954;SDS011;8594;52.052;8.354;2024-03-22T08:09:47;36.27;;;18.03;;
16954;SDS011;8594;52.052;8.354;2024-03-22T08:12:13;35.60;;;18.60;;
16954;SDS011;8594;52.052;8.354;2024-03-22T08:14:40;36.63;;;17.53;;
16954;SDS011;8594;52.052;8.354;2024-03-22T08:17:06;33.83;;;17.30;;
16954;SDS011;8594;52.052;8.354;2024-03-22T08:19:34;34.87;;;17.30;;
16954;SDS011;8594;52.052;8.354;2024-03-22T08:22:00;32.17;;;17.27;;
16954;SDS011;8594;52.052;8.354;2024-03-22T08:24:28;38.37;;;18.77;;
16954;SDS011;8594;52.052;8.354;2024-03-22T08:26:53;37.40;;;18.43;;
16954;SDS011;8594;52.052;8.354;2024-03-22T08:29:20;35.80;;;18.63;;
16954;SDS011;8594;52.052;8.354;2024-03-22T08:31:46;34.87;;;18.07;;
16954;SDS011;8594;52.052;8.354;2024-03-22T08:34:13;37.10;;;17.73;;
16954;SDS011;8594;52.052;8.354;2024-03-22T08:36:39;39.47;;;18.60;;
16954;SDS011;8594;52.052;8.354;2024-03-22T08:39:06;39.57;;;18.23;;
16954;SDS011;8594;52.052;8.354;2024-03-22T08:41:36;39.97;;;18.60;;
16954;SDS011;8594;52.052;8.354;2024-03-22T08:44:03;39.30;;;18.80;;
16954;SDS011;8594;52.052;8.354;2024-03-22T08:46:29;43.20;;;18.90;;
16954;SDS011;8594;52.052;8.354;2024-03-22T08:48:57;37.53;;;17.77;;
16954;SDS011;8594;52.052;8.354;2024-03-22T08:51:23;39.63;;;18.47;;
16954;SDS011;8594;52.052;8.354;2024-03-22T08:53:49;34.17;;;17.70;;
16954;SDS011;8594;52.052;8.354;2024-03-22T08:56:15;37.20;;;17.83;;
16954;SDS011;8594;52.052;8.354;2024-03-22T08:58:43;38.33;;;18.00;;
16954;SDS011;8594;52.052;8.354;2024-03-22T09:01:09;38.10;;;18.07;;
16954;SDS011;8594;52.052;8.354;2024-03-22T09:03:36;34.97;;;18.27;;
16954;SDS011;8594;52.052;8.354;2024-03-22T09:06:02;35.73;;;17.90;;
16954;SDS011;8594;52.052;8.354;2024-03-22T09:08:29;35.67;;;18.57;;
16954;SDS011;8594;52.052;8.354;2024-03-22T09:10:56;36.60;;;18.57;;
16954;SDS011;8594;52.052;8.354;2024-03-22T09:13:23;36.83;;;18.30;;
16954;SDS011;8594;52.052;8.354;2024-03-22T09:15:57;36.03;;;18.13;;
16954;SDS011;8594;52.052;8.354;2024-03-22T09:18:24;35.87;;;18.37;;
16954;SDS011;8594;52.052;8.354;2024-03-22T09:20:50;32.90;;;16.63;;
16954;SDS011;8594;52.052;8.354;2024-03-22T09:23:16;31.87;;;17.23;;
16954;SDS011;8594;52.052;8.354;2024-03-22T09:25:42;32.20;;;16.97;;
16954;SDS011;8594;52.052;8.354;2024-03-22T09:28:09;35.50;;;16.90;;
16954;SDS011;8594;52.052;8.354;2024-03-22T09:30:37;36.80;;;17.90;;
16954;SDS011;8594;52.052;8.354;2024-03-22T09:33:06;31.43;;;16.27;;
16954;SDS011;8594;52.052;8.354;2024-03-22T09:35:32;31.20;;;17.40;;
16954;SDS011;8594;52.052;8.354;2024-03-22T09:38:00;33.67;;;16.63;;
16954;SDS011;8594;52.052;8.354;2024-03-22T09:40:26;34.20;;;16.80;;
16954;SDS011;8594;52.052;8.354;2024-03-22T09:42:53;35.67;;;16.80;;
16954;SDS011;8594;52.052;8.354;2024-03-22T09:45:19;32.47;;;17.10;;
16954;SDS011;8594;52.052;8.354;2024-03-22T09:47:46;30.87;;;16.33;;
16954;SDS011;8594;52.052;8.354;2024-03-22T09:50:16;31.20;;;16.20;;
16954;SDS011;8594;52.052;8.354;2024-03-22T09:52:43;32.20;;;16.60;;
16954;SDS011;8594;52.052;8.354;2024-03-22T09:55:10;36.13;;;17.93;;
16954;SDS011;8594;52.052;8.354;2024-03-22T09:57:38;34.27;;;17.67;;
16954;SDS011;8594;52.052;8.354;2024-03-22T10:00:06;34.20;;;17.47;;
16954;SDS011;8594;52.052;8.354;2024-03-22T10:02:34;28.90;;;16.30;;
16954;SDS011;8594;52.052;8.354;2024-03-22T10:05:02;31.87;;;15.87;;
16954;SDS011;8594;52.052;8.354;2024-03-22T10:07:30;40.43;;;17.27;;
16954;SDS011;8594;52.052;8.354;2024-03-22T10:09:57;35.70;;;17.00;;
16954;SDS011;8594;52.052;8.354;2024-03-22T10:12:24;33.23;;;16.60;;
16954;SDS011;8594;52.052;8.354;2024-03-22T10:14:50;35.73;;;17.43;;
16954;SDS011;8594;52.052;8.354;2024-03-22T10:17:18;32.30;;;15.47;;
16954;SDS011;8594;52.052;8.354;2024-03-22T10:19:44;32.87;;;17.07;;
16954;SDS011;8594;52.052;8.354;2024-03-22T10:22:11;30.40;;;15.87;;
16954;SDS011;8594;52.052;8.354;2024-03-22T10:24:38;28.20;;;14.70;;
16954;SDS011;8594;52.052;8.354;2024-03-22T10:27:06;29.50;;;14.73;;
16954;SDS011;8594;52.052;8.354;2024-03-22T10:29:31;29.47;;;14.67;;
16954;SDS011;8594;52.052;8.354;2024-03-22T10:31:59;26.27;;;14.67;;
16954;SDS011;8594;52.052;8.354;2024-03-22T10:34:27;31.17;;;14.30;;
16954;SDS011;8594;52.052;8.354;2024-03-22T10:36:55;29.10;;;14.60;;
16954;SDS011;8594;52.052;8.354;2024-03-22T10:39:21;29.97;;;14.40;;
16954;SDS011;8594;52.052;8.354;2024-03-22T10:41:52;28.63;;;14.80;;
16954;SDS011;8594;52.052;8.354;2024-03-22T10:44:18;33.47;;;14.47;;
16954;SDS011;8594;52.052;8.354;2024-03-22T10:46:45;25.30;;;13.43;;
16954;SDS011;8594;52.052;8.354;2024-03-22T10:49:15;30.30;;;14.03;;
16954;SDS011;8594;52.052;8.354;2024-03-22T10:51:44;28.40;;;14.43;;
16954;SDS011;8594;52.052;8.354;2024-03-22T10:54:14;25.37;;;14.07;;
16954;SDS011;8594;52.052;8.354;2024-03-22T10:56:47;27.53;;;14.40;;
16954;SDS011;8594;52.052;8.354;2024-03-22T10:59:18;25.27;;;13.73;;
16954;SDS011;8594;52.052;8.354;2024-03-22T11:01:45;31.47;;;13.67;;
16954;SDS011;8594;52.052;8.354;2024-03-22T11:04:12;37.70;;;15.80;;
16954;SDS011;8594;52.052;8.354;2024-03-22T11:06:41;29.50;;;15.53;;
16954;SDS011;8594;52.052;8.354;2024-03-22T11:09:17;25.93;;;13.10;;
16954;SDS011;8594;52.052;8.354;2024-03-22T11:11:48;28.50;;;14.27;;
16954;SDS011;8594;52.052;8.354;2024-03-22T11:14:15;31.23;;;15.90;;
16954;SDS011;8594;52.052;8.354;2024-03-22T11:16:42;33.20;;;15.00;;
16954;SDS011;8594;52.052;8.354;2024-03-22T11:19:09;29.43;;;13.87;;
16954;SDS011;8594;52.052;8.354;2024-03-22T11:21:36;28.93;;;14.50;;
16954;SDS011;8594;52.052;8.354;2024-03-22T11:24:03;31.00;;;14.33;;
16954;SDS011;8594;52.052;8.354;2024-03-22T11:26:30;31.40;;;14.33;;
16954;SDS011;8594;52.052;8.354;2024-03-22T11:28:56;27.63;;;15.07;;
16954;SDS011;8594;52.052;8.354;2024-03-22T11:31:24;33.57;;;14.80;;
16954;SDS011;8594;52.052;8.354;2024-03-22T11:33:52;47.67;;;17.93;;
16954;SDS011;8594;52.052;8.354;2024-03-22T11:36:20;30.50;;;16.23;;
16954;SDS011;8594;52.052;8.354;2024-03-22T11:38:46;30.93;;;16.73;;
16954;SDS011;8594;52.052;8.354;2024-03-22T11:41:14;28.87;;;16.80;;
16954;SDS011;8594;52.052;8.354;2024-03-22T11:43:43;33.83;;;17.97;;
16954;SDS011;8594;52.052;8.354;2024-03-22T11:46:12;37.90;;;17.87;;
16954;SDS011;8594;52.052;8.354;2024-03-22T11:48:41;31.60;;;17.33;;
16954;SDS011;8594;52.052;8.354;2024-03-22T11:51:08;31.67;;;18.20;;
16954;SDS011;8594;52.052;8.354;2024-03-22T11:53:34;39.27;;;18.23;;
16954;SDS011;8594;52.052;8.354;2024-03-22T11:56:02;36.97;;;19.30;;
16954;SDS011;8594;52.052;8.354;2024-03-22T11:58:29;35.73;;;19.23;;
16954;SDS011;8594;52.052;8.354;2024-03-22T12:00:55;40.77;;;19.50;;
16954;SDS011;8594;52.052;8.354;2024-03-22T12:03:22;39.40;;;19.37;;
16954;SDS011;8594;52.052;8.354;2024-03-22T12:05:52;32.57;;;18.90;;
16954;SDS011;8594;52.052;8.354;2024-03-22T12:08:19;38.70;;;20.47;;
16954;SDS011;8594;52.052;8.354;2024-03-22T12:10:47;36.20;;;19.30;;
16954;SDS011;8594;52.052;8.354;2024-03-22T12:13:13;37.67;;;19.73;;
16954;SDS011;8594;52.052;8.354;2024-03-22T12:15:39;38.83;;;19.03;;
16954;SDS011;8594;52.052;8.354;2024-03-22T12:18:05;38.63;;;19.63;;
16954;SDS011;8594;52.052;8.354;2024-03-22T12:20:32;43.73;;;20.00;;
16954;SDS011;8594;52.052;8.354;2024-03-22T12:22:59;40.67;;;20.97;;
16954;SDS011;8594;52.052;8.354;2024-03-22T12:25:26;42.03;;;20.20;;
16954;SDS011;8594;52.052;8.354;2024-03-22T12:27:52;46.57;;;20.60;;
16954;SDS011;8594;52.052;8.354;2024-03-22T12:30:18;38.17;;;21.37;;
16954;SDS011;8594;52.052;8.354;2024-03-22T12:32:44;49.73;;;21.43;;
16954;SDS011;8594;52.052;8.354;2024-03-22T12:35:11;36.10;;;20.17;;
16954;SDS011;8594;52.052;8.354;2024-03-22T12:37:37;40.57;;;20.47;;
16954;SDS011;8594;52.052;8.354;2024-03-22T12:40:06;41.87;;;21.43;;
16954;SDS011;8594;52.052;8.354;2024-03-22T12:42:33;40.10;;;20.50;;
16954;SDS011;8594;52.052;8.354;2024-03-22T12:45:00;58.73;;;22.10;;
16954;SDS011;8594;52.052;8.354;2024-03-22T12:47:25;38.43;;;20.80;;
16954;SDS011;8594;52.052;8.354;2024-03-22T12:49:52;38.53;;;20.30;;
16954;SDS011;8594;52.052;8.354;2024-03-22T12:52:18;39.43;;;20.97;;
16954;SDS011;8594;52.052;8.354;2024-03-22T12:54:45;39.97;;;21.23;;
16954;SDS011;8594;52.052;8.354;2024-03-22T12:57:12;47.67;;;23.30;;
16954;SDS011;8594;52.052;8.354;2024-03-22T12:59:39;41.23;;;22.43;;
16954;SDS011;8594;52.052;8.354;2024-03-22T13:02:04;41.13;;;22.73;;
16954;SDS011;8594;52.052;8.354;2024-03-22T13:04:31;43.87;;;23.27;;
16954;SDS011;8594;52.052;8.354;2024-03-22T13:06:57;43.57;;;23.37;;
16954;SDS011;8594;52.052;8.354;2024-03-22T13:09:24;38.97;;;22.37;;
16954;SDS011;8594;52.052;8.354;2024-03-22T13:11:50;40.70;;;23.67;;
16954;SDS011;8594;52.052;8.354;2024-03-22T13:14:18;45.37;;;24.93;;
16954;SDS011;8594;52.052;8.354;2024-03-22T13:16:45;42.60;;;22.90;;
16954;SDS011;8594;52.052;8.354;2024-03-22T13:19:13;46.47;;;23.47;;
16954;SDS011;8594;52.052;8.354;2024-03-22T13:21:40;42.20;;;23.27;;
16954;SDS011;8594;52.052;8.354;2024-03-22T13:24:09;47.90;;;24.10;;
16954;SDS011;8594;52.052;8.354;2024-03-22T13:26:35;44.30;;;23.40;;
16954;SDS011;8594;52.052;8.354;2024-03-22T13:29:01;46.77;;;24.17;;
16954;SDS011;8594;52.052;8.354;2024-03-22T13:31:28;41.13;;;23.40;;
16954;SDS011;8594;52.052;8.354;2024-03-22T13:33:55;45.10;;;25.10;;
16954;SDS011;8594;52.052;8.354;2024-03-22T13:36:21;48.90;;;25.27;;
16954;SDS011;8594;52.052;8.354;2024-03-22T13:38:50;44.30;;;24.27;;
16954;SDS011;8594;52.052;8.354;2024-03-22T13:41:16;46.70;;;24.50;;
16954;SDS011;8594;52.052;8.354;2024-03-22T13:43:43;46.90;;;26.00;;
16954;SDS011;8594;52.052;8.354;2024-03-22T13:46:09;44.20;;;23.93;;
16954;SDS011;8594;52.052;8.354;2024-03-22T13:48:41;47.20;;;24.10;;
16954;SDS011;8594;52.052;8.354;2024-03-22T13:51:06;41.87;;;23.57;;
16954;SDS011;8594;52.052;8.354;2024-03-22T13:53:33;44.70;;;24.40;;
16954;SDS011;8594;52.052;8.354;2024-03-22T13:55:59;46.83;;;23.67;;
16954;SDS011;8594;52.052;8.354;2024-03-22T13:58:26;43.87;;;24.60;;
16954;SDS011;8594;52.052;8.354;2024-03-22T14:00:52;42.87;;;23.30;;
16954;SDS011;8594;52.052;8.354;2024-03-22T14:03:19;43.10;;;23.87;;
16954;SDS011;8594;52.052;8.354;2024-03-22T14:05:46;46.67;;;24.23;;
16954;SDS011;8594;52.052;8.354;2024-03-22T14:08:13;43.17;;;22.67;;
16954;SDS011;8594;52.052;8.354;2024-03-22T14:10:39;46.97;;;24.60;;
16954;SDS011;8594;52.052;8.354;2024-03-22T14:13:06;45.57;;;24.90;;
16954;SDS011;8594;52.052;8.354;2024-03-22T14:15:33;48.27;;;24.47;;
16954;SDS011;8594;52.052;8.354;2024-03-22T14:18:00;45.10;;;24.40;;
16954;SDS011;8594;52.052;8.354;2024-03-22T14:20:26;45.87;;;24.70;;
16954;SDS011;8594;52.052;8.354;2024-03-22T14:22:55;46.77;;;24.93;;
16954;SDS011;8594;52.052;8.354;2024-03-22T14:25:21;46.70;;;23.83;;
16954;SDS011;8594;52.052;8.354;2024-03-22T14:27:48;46.70;;;24.77;;
16954;SDS011;8594;52.052;8.354;2024-03-22T14:30:14;51.03;;;25.20;;